Time;durP1;ratioP1;P1;durP2;ratioP2;P2;SDS_P1;SDS_P2;PMS_P1;PMS_P2;Temp;Humidity;BMP_temperature;BMP_pressure;BME280_temperature;BME280_humidity;BME280_pressure;Samples;Min_cycle;Max_cycle;Signal;HPM_P1;HPM_P2
2021/09/03 00:00:05;;;;;;;;;21.00;16.25;;;;;;;;4979442;28;45345;-85
2021/09/03 00:02:30;;;;;;;;;20.75;19.25;;;;;;;;4992410;28;47089;-85
2021/09/03 00:04:55;;;;;;;;;22.00;16.33;;;;;;;;4986539;28;45640;-85
2021/09/03 00:07:20;;;;;;;;;19.75;16.00;;;;;;;;4997109;28;45301;-85
2021/09/03 00:09:45;;;;;;;;;21.00;17.00;;;;;;;;4981510;28;45635;-85
2021/09/03 00:12:11;;;;;;;;;20.67;18.67;;;;;;;;4984122;28;48030;-85
2021/09/03 00:14:36;;;;;;;;;22.33;17.67;;;;;;;;4996654;28;45159;-85
2021/09/03 00:17:02;;;;;;;;;16.50;16.25;;;;;;;;4980241;28;45332;-85
2021/09/03 00:19:27;;;;;;;;;20.00;18.25;;;;;;;;5016794;28;45222;-84
2021/09/03 00:21:52;;;;;;;;;18.25;17.50;;;;;;;;5009243;28;46535;-85
2021/09/03 00:24:18;;;;;;;;;15.00;14.50;;;;;;;;5020818;28;45207;-85
2021/09/03 00:26:43;;;;;;;;;22.50;16.50;;;;;;;;5013417;28;45380;-85
2021/09/03 00:29:09;;;;;;;;;18.25;17.00;;;;;;;;5021798;28;45486;-85
2021/09/03 00:31:34;;;;;;;;;21.33;16.00;;;;;;;;5017225;28;46262;-85
2021/09/03 00:33:59;;;;;;;;;29.00;19.33;;;;;;;;5005656;28;45158;-85
2021/09/03 00:36:24;;;;;;;;;22.67;18.00;;;;;;;;5020331;28;45462;-85
2021/09/03 00:38:49;;;;;;;;;21.67;18.00;;;;;;;;4998209;28;46145;-85
2021/09/03 00:41:15;;;;;;;;;18.33;17.00;;;;;;;;5012119;28;47151;-85
2021/09/03 00:43:40;;;;;;;;;21.00;19.00;;;;;;;;5021574;28;45816;-85
2021/09/03 00:46:06;;;;;;;;;22.00;17.25;;;;;;;;5017785;28;45396;-85
2021/09/03 00:48:31;;;;;;;;;19.33;18.33;;;;;;;;4995910;28;46135;-85
2021/09/03 00:50:57;;;;;;;;;25.00;20.50;;;;;;;;5000015;28;47311;-85
2021/09/03 00:53:23;;;;;;;;;20.00;18.25;;;;;;;;5003195;28;45590;-85
2021/09/03 00:55:48;;;;;;;;;20.75;17.25;;;;;;;;5002827;28;45685;-85
2021/09/03 00:58:13;;;;;;;;;19.25;18.00;;;;;;;;5016793;28;45496;-84
2021/09/03 01:00:39;;;;;;;;;26.67;19.00;;;;;;;;5002151;28;47394;-85
2021/09/03 01:03:04;;;;;;;;;25.33;21.00;;;;;;;;5014758;28;45385;-85
2021/09/03 01:05:30;;;;;;;;;21.67;18.00;;;;;;;;5018062;28;45463;-84
2021/09/03 01:07:56;;;;;;;;;22.25;20.00;;;;;;;;5018552;28;45571;-85
2021/09/03 01:10:22;;;;;;;;;22.00;17.50;;;;;;;;5017144;28;45427;-85
2021/09/03 01:12:48;;;;;;;;;23.25;18.50;;;;;;;;4992044;28;45645;-85
2021/09/03 01:15:14;;;;;;;;;28.75;19.75;;;;;;;;5016023;28;45518;-85
2021/09/03 01:17:40;;;;;;;;;20.00;17.25;;;;;;;;5015336;28;45452;-85
2021/09/03 01:20:07;;;;;;;;;23.25;20.50;;;;;;;;5018593;28;46010;-85
2021/09/03 01:22:32;;;;;;;;;26.50;20.25;;;;;;;;5016990;28;45460;-84
2021/09/03 01:24:58;;;;;;;;;27.00;22.50;;;;;;;;5019435;28;45400;-85
2021/09/03 01:27:23;;;;;;;;;23.67;19.33;;;;;;;;5015648;28;45384;-84
2021/09/03 01:29:48;;;;;;;;;25.00;20.00;;;;;;;;4999100;28;46812;-85
2021/09/03 01:32:13;;;;;;;;;22.75;20.50;;;;;;;;4997550;28;45467;-85
2021/09/03 01:34:38;;;;;;;;;22.33;21.00;;;;;;;;4999891;28;45756;-85
2021/09/03 01:37:04;;;;;;;;;26.00;23.00;;;;;;;;4996170;28;45560;-84
2021/09/03 01:39:29;;;;;;;;;20.75;19.50;;;;;;;;5017672;28;45276;-85
2021/09/03 01:41:55;;;;;;;;;24.75;21.25;;;;;;;;4990793;28;45750;-85
2021/09/03 01:44:20;;;;;;;;;28.50;20.00;;;;;;;;5004678;28;45281;-85
2021/09/03 01:46:45;;;;;;;;;25.33;22.00;;;;;;;;5006528;28;45548;-84
2021/09/03 01:49:10;;;;;;;;;27.33;21.00;;;;;;;;5001348;28;47118;-85
2021/09/03 01:51:36;;;;;;;;;29.67;24.00;;;;;;;;5003003;28;45365;-86
2021/09/03 01:54:01;;;;;;;;;30.00;21.67;;;;;;;;5018212;28;45318;-86
2021/09/03 01:56:26;;;;;;;;;27.75;19.25;;;;;;;;5013800;28;45354;-86
2021/09/03 01:58:52;;;;;;;;;31.33;23.00;;;;;;;;5019829;28;45519;-86
2021/09/03 02:01:17;;;;;;;;;27.50;23.75;;;;;;;;5000317;28;45891;-85
2021/09/03 02:03:42;;;;;;;;;26.33;21.00;;;;;;;;5019849;28;45414;-86
2021/09/03 02:06:07;;;;;;;;;24.67;23.33;;;;;;;;5013326;28;45231;-85
2021/09/03 02:08:33;;;;;;;;;28.00;22.33;;;;;;;;5002327;28;46988;-86
2021/09/03 02:10:58;;;;;;;;;25.50;23.50;;;;;;;;5000989;28;45413;-86
2021/09/03 02:13:23;;;;;;;;;23.00;22.00;;;;;;;;5013520;28;45377;-85
2021/09/03 02:15:49;;;;;;;;;25.00;22.00;;;;;;;;5001940;28;45807;-85
2021/09/03 02:18:14;;;;;;;;;31.00;23.00;;;;;;;;5012598;28;45419;-85
2021/09/03 02:20:39;;;;;;;;;27.75;25.75;;;;;;;;5005318;28;45838;-86
2021/09/03 02:23:05;;;;;;;;;21.33;20.33;;;;;;;;5020443;28;46735;-86
2021/09/03 02:25:30;;;;;;;;;23.25;19.75;;;;;;;;5019105;28;46107;-86
2021/09/03 02:27:55;;;;;;;;;29.00;27.00;;;;;;;;5023316;28;45592;-85
2021/09/03 02:30:20;;;;;;;;;30.67;24.67;;;;;;;;5016589;28;45344;-85
2021/09/03 02:32:46;;;;;;;;;32.33;26.33;;;;;;;;5020097;28;45606;-85
2021/09/03 02:35:11;;;;;;;;;25.67;24.33;;;;;;;;5001646;28;45421;-85
2021/09/03 02:37:36;;;;;;;;;37.00;27.33;;;;;;;;5017219;28;46658;-85
2021/09/03 02:40:02;;;;;;;;;27.33;26.33;;;;;;;;5015246;28;45495;-86
2021/09/03 02:42:27;;;;;;;;;30.75;27.25;;;;;;;;5016708;28;45423;-85
2021/09/03 02:44:52;;;;;;;;;27.33;26.33;;;;;;;;5016345;28;45309;-85
2021/09/03 02:47:18;;;;;;;;;28.33;25.67;;;;;;;;5001614;28;47350;-85
2021/09/03 02:49:43;;;;;;;;;33.67;27.00;;;;;;;;4997917;28;45393;-86
2021/09/03 02:52:08;;;;;;;;;32.00;28.67;;;;;;;;5019354;28;45426;-85
2021/09/03 02:54:33;;;;;;;;;29.67;23.00;;;;;;;;5012530;28;45503;-85
2021/09/03 02:56:58;;;;;;;;;34.00;28.00;;;;;;;;4994338;28;47300;-85
2021/09/03 02:59:24;;;;;;;;;31.00;27.33;;;;;;;;5017894;28;45543;-86
2021/09/03 03:01:49;;;;;;;;;32.33;28.00;;;;;;;;5015675;28;45374;-86
2021/09/03 03:04:14;;;;;;;;;34.67;29.33;;;;;;;;5017748;28;45520;-86
2021/09/03 03:06:39;;;;;;;;;32.33;26.33;;;;;;;;5013244;28;46400;-86
2021/09/03 03:09:04;;;;;;;;;34.00;30.67;;;;;;;;5001296;28;45469;-85
2021/09/03 03:11:30;;;;;;;;;40.33;28.67;;;;;;;;5017258;28;45323;-86
2021/09/03 03:14:10;;;;;;;;;34.33;28.00;;;;;;;;5022560;28;45664;-86
2021/09/03 03:16:35;;;;;;;;;38.50;28.00;;;;;;;;4990676;28;47670;-86
2021/09/03 03:19:01;;;;;;;;;33.00;27.67;;;;;;;;5019904;28;45475;-86
2021/09/03 03:21:26;;;;;;;;;34.50;28.00;;;;;;;;5000308;28;45463;-86
2021/09/03 03:23:51;;;;;;;;;31.33;30.00;;;;;;;;5017385;28;45470;-86
2021/09/03 03:26:16;;;;;;;;;33.33;29.67;;;;;;;;5000626;28;47367;-86
2021/09/03 03:28:42;;;;;;;;;32.75;29.75;;;;;;;;5020036;28;45518;-86
2021/09/03 03:31:07;;;;;;;;;39.67;30.00;;;;;;;;5000802;28;45673;-86
2021/09/03 03:33:32;;;;;;;;;32.00;28.00;;;;;;;;5000691;28;45384;-86
2021/09/03 03:35:57;;;;;;;;;33.00;26.33;;;;;;;;5014070;28;45740;-86
2021/09/03 03:38:22;;;;;;;;;31.00;26.67;;;;;;;;5000947;28;45967;-86
2021/09/03 03:40:48;;;;;;;;;36.67;31.00;;;;;;;;5014699;28;45381;-85
2021/09/03 03:43:13;;;;;;;;;35.25;28.50;;;;;;;;5000777;28;45435;-86
2021/09/03 03:45:38;;;;;;;;;33.00;27.75;;;;;;;;4997852;28;47212;-85
2021/09/03 03:48:04;;;;;;;;;37.67;30.33;;;;;;;;4997912;28;45578;-86
2021/09/03 03:50:29;;;;;;;;;37.00;29.75;;;;;;;;5000498;28;45451;-86
2021/09/03 03:52:54;;;;;;;;;35.67;30.00;;;;;;;;5022080;28;45308;-85
2021/09/03 03:55:20;;;;;;;;;40.00;30.00;;;;;;;;5004101;28;46937;-86
2021/09/03 03:57:45;;;;;;;;;36.25;32.00;;;;;;;;5021615;28;45305;-86
2021/09/03 04:00:11;;;;;;;;;38.67;30.33;;;;;;;;5005741;28;45424;-85
2021/09/03 04:02:36;;;;;;;;;34.00;29.00;;;;;;;;5014675;28;46206;-85
2021/09/03 04:05:02;;;;;;;;;35.67;29.00;;;;;;;;5021903;28;46006;-86
2021/09/03 04:07:27;;;;;;;;;42.00;32.75;;;;;;;;5022515;28;45736;-85
2021/09/03 04:09:52;;;;;;;;;40.33;31.67;;;;;;;;5005639;28;45217;-86
2021/09/03 04:12:18;;;;;;;;;31.33;29.33;;;;;;;;5013155;28;45404;-86
2021/09/03 04:14:43;;;;;;;;;35.00;29.33;;;;;;;;5020931;28;46284;-86
2021/09/03 04:17:08;;;;;;;;;34.33;31.00;;;;;;;;5021307;28;45301;-86
2021/09/03 04:19:33;;;;;;;;;36.33;30.33;;;;;;;;5020595;28;45312;-85
2021/09/03 04:21:58;;;;;;;;;32.00;29.50;;;;;;;;5001893;28;46543;-85
2021/09/03 04:24:24;;;;;;;;;34.67;30.00;;;;;;;;5017904;28;45515;-86
2021/09/03 04:26:49;;;;;;;;;38.00;32.25;;;;;;;;4993550;28;45435;-85
2021/09/03 04:29:14;;;;;;;;;33.75;31.50;;;;;;;;5004235;28;45366;-86
2021/09/03 04:31:39;;;;;;;;;36.00;30.00;;;;;;;;5003519;28;45927;-86
2021/09/03 04:34:05;;;;;;;;;35.33;31.33;;;;;;;;5021947;28;45409;-85
2021/09/03 04:36:30;;;;;;;;;31.75;27.25;;;;;;;;5001893;28;47176;-85
2021/09/03 04:38:55;;;;;;;;;45.33;31.00;;;;;;;;5022230;28;45379;-85
2021/09/03 04:41:20;;;;;;;;;39.33;32.00;;;;;;;;5003625;28;45775;-85
2021/09/03 04:43:46;;;;;;;;;37.67;31.00;;;;;;;;5023846;28;45591;-85
2021/09/03 04:46:11;;;;;;;;;33.75;30.00;;;;;;;;5021411;28;45419;-85
2021/09/03 04:48:36;;;;;;;;;43.50;33.00;;;;;;;;5016925;28;46332;-85
2021/09/03 04:51:02;;;;;;;;;45.00;33.00;;;;;;;;5003522;28;45404;-85
2021/09/03 04:53:27;;;;;;;;;38.00;31.50;;;;;;;;5021808;28;45411;-85
2021/09/03 04:55:53;;;;;;;;;36.00;30.00;;;;;;;;5018681;28;45717;-84
2021/09/03 04:58:18;;;;;;;;;45.75;35.50;;;;;;;;5002719;28;45186;-85
2021/09/03 05:00:43;;;;;;;;;41.50;30.25;;;;;;;;5018225;28;45448;-85
2021/09/03 05:03:09;;;;;;;;;38.67;32.67;;;;;;;;5020051;28;45505;-85
2021/09/03 05:05:34;;;;;;;;;41.33;32.00;;;;;;;;5015146;28;45490;-85
2021/09/03 05:07:59;;;;;;;;;40.00;32.33;;;;;;;;5021375;28;45435;-85
2021/09/03 05:10:24;;;;;;;;;39.50;32.00;;;;;;;;5016220;28;45415;-85
2021/09/03 05:12:49;;;;;;;;;38.33;32.00;;;;;;;;5018191;28;45600;-85
2021/09/03 05:15:16;;;;;;;;;43.00;32.33;;;;;;;;5002570;28;46233;-85
2021/09/03 05:17:49;;;;;;;;;41.25;31.00;;;;;;;;5013931;28;45556;-85
2021/09/03 05:20:15;;;;;;;;;41.25;33.00;;;;;;;;5002864;28;45450;-85
2021/09/03 05:22:41;;;;;;;;;39.00;33.25;;;;;;;;4985883;28;48186;-85
2021/09/03 05:25:08;;;;;;;;;44.67;34.00;;;;;;;;5012437;28;45305;-85
2021/09/03 05:27:34;;;;;;;;;37.75;31.75;;;;;;;;4999375;28;45529;-85
2021/09/03 05:29:59;;;;;;;;;39.25;32.25;;;;;;;;5014786;28;45517;-85
2021/09/03 05:32:24;;;;;;;;;44.50;34.50;;;;;;;;5022405;28;45444;-85
2021/09/03 05:34:50;;;;;;;;;41.67;34.33;;;;;;;;5010573;28;45536;-85
2021/09/03 05:37:15;;;;;;;;;41.75;35.00;;;;;;;;5013830;28;45481;-85
2021/09/03 05:39:40;;;;;;;;;40.00;33.00;;;;;;;;5017942;28;45575;-85
2021/09/03 05:42:06;;;;;;;;;39.67;32.00;;;;;;;;5020288;28;46268;-85
2021/09/03 05:44:31;;;;;;;;;43.75;32.75;;;;;;;;5016685;28;45325;-85
2021/09/03 05:46:56;;;;;;;;;42.67;34.67;;;;;;;;5020699;28;45340;-85
2021/09/03 05:49:21;;;;;;;;;45.00;34.67;;;;;;;;4998865;28;45730;-86
2021/09/03 05:51:47;;;;;;;;;44.33;32.67;;;;;;;;5001798;28;47049;-85
2021/09/03 05:54:12;;;;;;;;;47.67;33.00;;;;;;;;5003084;28;45588;-86
2021/09/03 05:56:37;;;;;;;;;38.33;32.67;;;;;;;;4997605;28;45445;-85
2021/09/03 05:59:06;;;;;;;;;41.25;32.50;;;;;;;;4998887;28;45530;-86
2021/09/03 06:01:31;;;;;;;;;39.75;33.25;;;;;;;;5015940;28;45319;-85
2021/09/03 06:03:57;;;;;;;;;37.75;30.25;;;;;;;;5001146;28;45501;-86
2021/09/03 06:06:22;;;;;;;;;37.67;31.67;;;;;;;;5010141;28;45583;-85
2021/09/03 06:08:49;;;;;;;;;44.67;33.00;;;;;;;;5013423;28;45615;-85
2021/09/03 06:11:14;;;;;;;;;38.75;32.75;;;;;;;;5002975;28;47314;-85
2021/09/03 06:13:39;;;;;;;;;39.33;32.00;;;;;;;;4999502;28;45855;-85
2021/09/03 06:16:04;;;;;;;;;40.00;32.00;;;;;;;;5002612;28;45328;-85
2021/09/03 06:18:30;;;;;;;;;38.25;32.25;;;;;;;;5019578;28;45211;-85
2021/09/03 06:20:55;;;;;;;;;37.00;32.00;;;;;;;;4998150;28;47102;-85
2021/09/03 06:23:20;;;;;;;;;35.67;28.67;;;;;;;;5002335;28;45514;-85
2021/09/03 06:25:45;;;;;;;;;38.33;29.33;;;;;;;;5003972;28;45485;-85
2021/09/03 06:28:10;;;;;;;;;39.00;32.00;;;;;;;;5020286;28;45292;-85
2021/09/03 06:30:36;;;;;;;;;47.00;33.00;;;;;;;;5012860;28;45400;-85
2021/09/03 06:33:01;;;;;;;;;41.67;33.00;;;;;;;;5019208;28;45384;-85
2021/09/03 06:35:27;;;;;;;;;44.33;32.00;;;;;;;;5017366;28;45506;-86
2021/09/03 06:37:52;;;;;;;;;37.75;32.75;;;;;;;;5013448;28;45533;-85
2021/09/03 06:40:17;;;;;;;;;39.75;31.50;;;;;;;;5016267;28;45583;-85
2021/09/03 06:42:43;;;;;;;;;34.50;31.50;;;;;;;;5016990;28;45907;-85
2021/09/03 06:45:09;;;;;;;;;43.75;35.25;;;;;;;;5003422;28;45492;-85
2021/09/03 06:47:34;;;;;;;;;37.00;32.00;;;;;;;;5018476;28;45592;-89
2021/09/03 06:50:00;;;;;;;;;36.67;32.67;;;;;;;;5017762;28;46286;-86
2021/09/03 06:52:28;;;;;;;;;41.75;32.25;;;;;;;;5001748;28;45546;-84
2021/09/03 06:54:54;;;;;;;;;39.00;32.25;;;;;;;;5012095;28;45502;-84
2021/09/03 06:57:20;;;;;;;;;43.25;32.50;;;;;;;;5017427;28;45400;-84
2021/09/03 06:59:45;;;;;;;;;40.33;33.67;;;;;;;;4995807;28;47478;-84
2021/09/03 07:02:12;;;;;;;;;46.00;36.33;;;;;;;;5017037;28;45804;-84
2021/09/03 07:04:37;;;;;;;;;45.50;38.25;;;;;;;;5003656;28;45427;-84
2021/09/03 07:07:03;;;;;;;;;50.00;36.67;;;;;;;;5022471;28;46427;-84
2021/09/03 07:09:28;;;;;;;;;50.75;40.00;;;;;;;;5015249;28;45453;-84
2021/09/03 07:11:53;;;;;;;;;49.33;35.67;;;;;;;;5017892;28;45437;-85
2021/09/03 07:14:19;;;;;;;;;62.33;45.33;;;;;;;;4999465;28;45371;-84
2021/09/03 07:16:44;;;;;;;;;49.50;38.00;;;;;;;;5017969;28;45560;-84
2021/09/03 07:19:09;;;;;;;;;40.00;35.00;;;;;;;;5013740;28;45446;-84
2021/09/03 07:21:34;;;;;;;;;45.00;35.33;;;;;;;;5016387;28;45613;-85
2021/09/03 07:24:00;;;;;;;;;42.67;36.00;;;;;;;;5007484;28;45491;-84
2021/09/03 07:26:27;;;;;;;;;62.50;46.25;;;;;;;;5016575;28;46499;-85
2021/09/03 07:28:53;;;;;;;;;40.25;32.50;;;;;;;;5010771;28;46609;-85
2021/09/03 07:31:18;;;;;;;;;44.75;34.25;;;;;;;;5001039;28;45665;-84
2021/09/03 07:33:43;;;;;;;;;40.75;32.75;;;;;;;;5012974;28;45470;-84
2021/09/03 07:36:09;;;;;;;;;37.75;31.75;;;;;;;;5018632;28;45385;-86
2021/09/03 07:38:34;;;;;;;;;36.33;30.33;;;;;;;;5009015;28;46541;-84
2021/09/03 07:40:59;;;;;;;;;37.50;31.50;;;;;;;;5018939;28;45162;-85
2021/09/03 07:43:24;;;;;;;;;37.50;28.25;;;;;;;;5000020;28;45767;-84
2021/09/03 07:45:50;;;;;;;;;32.25;29.75;;;;;;;;5006917;28;45981;-85
2021/09/03 07:48:15;;;;;;;;;35.75;30.00;;;;;;;;5022078;28;46241;-84
2021/09/03 07:50:40;;;;;;;;;35.33;29.67;;;;;;;;5006954;28;44908;-88
2021/09/03 07:53:06;;;;;;;;;33.75;31.50;;;;;;;;5012403;28;45248;-88
2021/09/03 07:55:31;;;;;;;;;34.50;31.00;;;;;;;;5016665;28;44807;-85
2021/09/03 07:57:57;;;;;;;;;34.25;25.25;;;;;;;;5004318;28;47308;-85
2021/09/03 08:00:22;;;;;;;;;27.75;26.75;;;;;;;;5013747;28;45390;-84
2021/09/03 08:02:47;;;;;;;;;29.50;23.25;;;;;;;;5012489;28;45539;-84
2021/09/03 08:05:13;;;;;;;;;30.50;27.50;;;;;;;;5015681;28;45506;-84
2021/09/03 08:07:42;;;;;;;;;33.00;28.67;;;;;;;;4998526;28;47950;-84
2021/09/03 08:10:12;;;;;;;;;32.25;29.00;;;;;;;;4997747;28;45864;-84
2021/09/03 08:12:38;;;;;;;;;33.00;29.50;;;;;;;;5013397;28;45522;-85
2021/09/03 08:15:04;;;;;;;;;40.25;32.50;;;;;;;;4998351;28;45485;-84
2021/09/03 08:17:29;;;;;;;;;26.25;24.00;;;;;;;;5014605;28;46132;-84
2021/09/03 08:19:55;;;;;;;;;26.25;21.75;;;;;;;;5016340;28;45421;-85
2021/09/03 08:22:20;;;;;;;;;24.33;22.67;;;;;;;;5011990;28;45461;-84
2021/09/03 08:24:45;;;;;;;;;24.75;24.00;;;;;;;;4998907;28;45316;-84
2021/09/03 08:27:11;;;;;;;;;23.75;21.75;;;;;;;;4992994;28;47736;-84
2021/09/03 08:29:36;;;;;;;;;27.75;21.75;;;;;;;;5008965;28;45444;-85
2021/09/03 08:32:01;;;;;;;;;22.50;21.25;;;;;;;;5007592;28;45288;-85
2021/09/03 08:34:26;;;;;;;;;21.50;19.25;;;;;;;;5006658;28;45575;-85
2021/09/03 08:36:52;;;;;;;;;22.00;21.00;;;;;;;;4996357;28;48408;-85
2021/09/03 08:39:17;;;;;;;;;27.00;22.00;;;;;;;;5015683;28;45349;-85
2021/09/03 08:41:42;;;;;;;;;20.25;19.25;;;;;;;;5016281;28;45806;-84
2021/09/03 08:44:07;;;;;;;;;27.25;21.00;;;;;;;;5015210;28;45456;-84
2021/09/03 08:46:34;;;;;;;;;23.33;18.67;;;;;;;;5013329;28;46275;-85
2021/09/03 08:49:00;;;;;;;;;17.75;16.25;;;;;;;;4999689;28;45763;-85
2021/09/03 08:51:25;;;;;;;;;20.25;20.25;;;;;;;;5019151;28;45451;-85
2021/09/03 08:53:51;;;;;;;;;20.00;19.00;;;;;;;;5014270;28;45570;-85
2021/09/03 08:56:18;;;;;;;;;24.00;22.00;;;;;;;;5000831;28;48466;-85
2021/09/03 08:58:43;;;;;;;;;28.25;21.00;;;;;;;;4997490;28;46890;-85
2021/09/03 09:01:12;;;;;;;;;24.33;23.33;;;;;;;;5018292;28;45452;-85
2021/09/03 09:03:38;;;;;;;;;20.25;20.00;;;;;;;;4997704;28;45947;-85
2021/09/03 09:06:04;;;;;;;;;19.25;19.25;;;;;;;;5018503;28;47494;-85
2021/09/03 09:08:30;;;;;;;;;21.25;20.00;;;;;;;;5016739;28;46546;-85
2021/09/03 09:11:03;;;;;;;;;20.25;20.25;;;;;;;;5012763;28;45491;-86
2021/09/03 09:13:30;;;;;;;;;21.50;19.75;;;;;;;;5014589;28;45289;-86
2021/09/03 09:15:56;;;;;;;;;19.00;19.00;;;;;;;;4999906;28;47759;-86
2021/09/03 09:18:41;;;;;;;;;20.50;18.00;;;;;;;;5000032;28;46026;-86
2021/09/03 09:21:17;;;;;;;;;15.75;13.75;;;;;;;;5001383;28;45441;-86
2021/09/03 09:23:44;;;;;;;;;19.75;18.50;;;;;;;;4997813;28;50259;-86
2021/09/03 09:26:10;;;;;;;;;12.25;9.75;;;;;;;;5002808;28;47280;-85
2021/09/03 09:28:35;;;;;;;;;21.75;21.75;;;;;;;;5002058;28;45499;-85
2021/09/03 09:31:01;;;;;;;;;18.00;16.33;;;;;;;;5007546;28;45337;-86
2021/09/03 09:33:26;;;;;;;;;20.00;18.75;;;;;;;;5016781;28;45498;-85
2021/09/03 09:35:52;;;;;;;;;20.00;16.50;;;;;;;;5012692;28;46354;-86
2021/09/03 09:38:19;;;;;;;;;18.75;18.75;;;;;;;;5017082;28;45403;-86
2021/09/03 09:40:45;;;;;;;;;18.00;16.25;;;;;;;;4999966;28;45399;-86
2021/09/03 09:43:26;;;;;;;;;20.25;17.75;;;;;;;;5015925;28;45397;-85
2021/09/03 09:46:10;;;;;;;;;18.75;16.25;;;;;;;;5014630;28;45981;-86
2021/09/03 09:48:51;;;;;;;;;20.00;17.25;;;;;;;;4999041;28;45529;-86
2021/09/03 09:51:19;;;;;;;;;17.00;16.50;;;;;;;;4999052;28;45419;-86
2021/09/03 09:53:52;;;;;;;;;15.50;15.50;;;;;;;;5012394;28;45529;-85
2021/09/03 09:56:17;;;;;;;;;16.75;16.00;;;;;;;;5016245;28;46753;-86
2021/09/03 09:58:43;;;;;;;;;17.33;15.00;;;;;;;;5013222;28;45494;-92
2021/09/03 10:01:21;;;;;;;;;17.50;14.00;;;;;;;;5004928;28;45296;-94
2021/09/03 10:03:50;;;;;;;;;16.00;14.50;;;;;;;;5018185;28;45439;-95
2021/09/03 10:06:17;;;;;;;;;17.00;14.00;;;;;;;;5004072;28;48046;-86
2021/09/03 10:08:44;;;;;;;;;15.75;13.75;;;;;;;;5017054;28;45498;-86
2021/09/03 10:11:10;;;;;;;;;14.50;11.25;;;;;;;;5018084;28;45413;-86
2021/09/03 10:13:35;;;;;;;;;13.75;13.50;;;;;;;;5014415;28;45381;-86
2021/09/03 10:16:00;;;;;;;;;18.00;15.33;;;;;;;;5017723;28;46054;-86
2021/09/03 10:18:25;;;;;;;;;17.50;14.75;;;;;;;;5003390;28;45329;-86
2021/09/03 10:20:51;;;;;;;;;16.25;14.25;;;;;;;;5017444;28;45414;-86
2021/09/03 10:23:34;;;;;;;;;17.33;16.67;;;;;;;;5014146;28;45817;-86
2021/09/03 10:26:01;;;;;;;;;15.50;14.00;;;;;;;;5012522;28;45458;-86
2021/09/03 10:28:26;;;;;;;;;16.75;14.25;;;;;;;;5012100;28;45376;-86
2021/09/03 10:31:04;;;;;;;;;13.50;13.25;;;;;;;;5018122;28;45452;-86
2021/09/03 10:33:36;;;;;;;;;13.50;13.50;;;;;;;;5016820;28;45347;-86
2021/09/03 10:36:02;;;;;;;;;14.50;12.75;;;;;;;;5017523;28;45439;-85
2021/09/03 10:38:29;;;;;;;;;15.25;14.25;;;;;;;;5018098;28;45340;-86
2021/09/03 10:40:54;;;;;;;;;13.50;13.25;;;;;;;;5020245;28;45588;-86
2021/09/03 10:43:38;;;;;;;;;11.25;11.25;;;;;;;;5015681;28;45490;-86
2021/09/03 10:46:03;;;;;;;;;13.25;11.50;;;;;;;;5015142;28;47694;-85
2021/09/03 10:48:31;;;;;;;;;12.75;12.75;;;;;;;;5014098;28;45382;-86
2021/09/03 10:50:56;;;;;;;;;13.00;12.75;;;;;;;;5015413;28;45344;-85
2021/09/03 10:53:26;;;;;;;;;11.50;10.50;;;;;;;;5017570;28;45443;-85
2021/09/03 10:55:58;;;;;;;;;16.25;15.00;;;;;;;;5018970;28;45390;-85
2021/09/03 10:58:41;;;;;;;;;17.50;14.75;;;;;;;;5027613;28;45383;-85
2021/09/03 11:01:10;;;;;;;;;15.75;15.00;;;;;;;;5026079;28;44780;-85
2021/09/03 11:03:35;;;;;;;;;12.00;12.00;;;;;;;;5021272;28;45482;-85
2021/09/03 11:06:01;;;;;;;;;11.67;11.00;;;;;;;;5017481;28;46204;-85
2021/09/03 11:08:38;;;;;;;;;15.75;14.25;;;;;;;;5017720;28;45317;-85
2021/09/03 11:11:22;;;;;;;;;11.25;11.25;;;;;;;;5010681;28;45567;-85
2021/09/03 11:13:58;;;;;;;;;14.00;13.50;;;;;;;;5016740;28;45456;-85
2021/09/03 11:16:45;;;;;;;;;13.75;13.00;;;;;;;;5017887;28;47239;-85
2021/09/03 11:19:10;;;;;;;;;11.25;11.00;;;;;;;;5017352;28;45975;-85
2021/09/03 11:21:42;;;;;;;;;17.00;14.00;;;;;;;;5012618;28;45738;-85
2021/09/03 11:24:07;;;;;;;;;11.25;10.75;;;;;;;;5016357;28;45337;-85
2021/09/03 11:26:34;;;;;;;;;12.25;12.25;;;;;;;;5013907;28;45448;-85
2021/09/03 11:29:03;;;;;;;;;18.50;13.75;;;;;;;;5017358;28;45634;-85
2021/09/03 11:31:28;;;;;;;;;14.75;14.50;;;;;;;;5017233;28;45340;-85
2021/09/03 11:33:53;;;;;;;;;14.75;13.75;;;;;;;;5016793;28;45564;-85
2021/09/03 11:36:19;;;;;;;;;12.50;11.75;;;;;;;;5010394;28;45478;-85
2021/09/03 11:38:51;;;;;;;;;14.50;13.00;;;;;;;;5016299;28;45481;-85
2021/09/03 11:41:17;;;;;;;;;14.50;12.50;;;;;;;;5011987;28;47274;-84
2021/09/03 11:43:42;;;;;;;;;14.00;14.00;;;;;;;;5018575;28;45840;-84
2021/09/03 11:46:17;;;;;;;;;14.33;14.33;;;;;;;;5017276;28;46263;-85
2021/09/03 11:48:44;;;;;;;;;13.00;12.75;;;;;;;;5021727;28;45440;-85
2021/09/03 11:51:17;;;;;;;;;14.50;14.50;;;;;;;;5015779;28;45344;-85
2021/09/03 11:53:42;;;;;;;;;15.00;15.00;;;;;;;;5013362;28;45490;-85
2021/09/03 11:56:12;;;;;;;;;14.50;12.50;;;;;;;;5017419;28;45703;-84
2021/09/03 11:58:37;;;;;;;;;22.25;18.00;;;;;;;;5010122;28;45324;-84
2021/09/03 12:01:05;;;;;;;;;16.50;15.00;;;;;;;;5011089;28;45288;-84
2021/09/03 12:03:35;;;;;;;;;18.25;17.25;;;;;;;;5014712;28;45490;-84
2021/09/03 12:06:01;;;;;;;;;11.00;11.00;;;;;;;;5014894;28;45392;-85
2021/09/03 12:08:28;;;;;;;;;19.00;15.75;;;;;;;;5008042;28;45306;-84
2021/09/03 12:11:03;;;;;;;;;19.25;15.50;;;;;;;;5014020;28;45336;-84
2021/09/03 12:13:29;;;;;;;;;14.75;12.75;;;;;;;;5019615;28;45605;-84
2021/09/03 12:15:58;;;;;;;;;16.25;15.50;;;;;;;;5019809;28;45354;-84
2021/09/03 12:18:30;;;;;;;;;15.00;13.75;;;;;;;;5020262;28;45971;-85
2021/09/03 12:20:57;;;;;;;;;12.75;11.00;;;;;;;;5018979;28;45537;-84
2021/09/03 12:23:22;;;;;;;;;13.00;12.50;;;;;;;;5018287;28;46022;-85
2021/09/03 12:25:48;;;;;;;;;11.00;9.50;;;;;;;;5018412;28;45876;-83
2021/09/03 12:28:19;;;;;;;;;14.25;13.75;;;;;;;;5020011;28;45425;-89
2021/09/03 12:30:47;;;;;;;;;16.50;16.00;;;;;;;;5019224;28;46440;-85
2021/09/03 12:33:23;;;;;;;;;16.00;14.00;;;;;;;;5010367;28;45483;-83
2021/09/03 12:35:49;;;;;;;;;18.75;16.75;;;;;;;;5012942;28;45506;-83
2021/09/03 12:38:15;;;;;;;;;14.50;13.75;;;;;;;;5018049;28;45494;-83
2021/09/03 12:40:40;;;;;;;;;17.25;14.00;;;;;;;;5015152;28;45563;-83
2021/09/03 12:43:13;;;;;;;;;11.00;11.00;;;;;;;;5010630;28;45470;-83
2021/09/03 12:45:42;;;;;;;;;13.75;12.25;;;;;;;;5013170;28;45464;-84
2021/09/03 12:48:07;;;;;;;;;13.25;12.75;;;;;;;;5019136;28;48155;-83
2021/09/03 12:50:33;;;;;;;;;15.25;14.00;;;;;;;;5017742;28;45213;-83
2021/09/03 12:52:58;;;;;;;;;21.25;14.00;;;;;;;;5013485;28;45344;-82
2021/09/03 12:55:23;;;;;;;;;16.00;15.75;;;;;;;;5014906;28;46551;-84
2021/09/03 12:57:49;;;;;;;;;16.50;14.00;;;;;;;;5014552;28;45414;-84
2021/09/03 13:00:14;;;;;;;;;19.00;14.33;;;;;;;;5011165;28;45386;-84
2021/09/03 13:02:39;;;;;;;;;18.00;17.00;;;;;;;;5019248;28;45529;-81
2021/09/03 13:05:05;;;;;;;;;13.33;13.33;;;;;;;;5012021;28;46312;-82
2021/09/03 13:07:30;;;;;;;;;14.50;14.00;;;;;;;;5014197;28;45449;-81
2021/09/03 13:09:57;;;;;;;;;18.00;16.33;;;;;;;;5011481;28;45387;-86
2021/09/03 13:12:22;;;;;;;;;15.50;13.25;;;;;;;;5016069;28;46169;-87
2021/09/03 13:14:47;;;;;;;;;15.33;13.67;;;;;;;;5013244;28;47746;-87
2021/09/03 13:17:13;;;;;;;;;12.50;12.50;;;;;;;;5009239;28;45970;-83
2021/09/03 13:19:38;;;;;;;;;13.75;11.00;;;;;;;;5019091;28;45742;-89
2021/09/03 13:22:03;;;;;;;;;17.33;16.00;;;;;;;;5001489;28;45802;-85
2021/09/03 13:24:28;;;;;;;;;18.25;14.00;;;;;;;;4999900;28;47505;-85
2021/09/03 13:26:54;;;;;;;;;16.67;14.33;;;;;;;;5017953;28;45683;-85
2021/09/03 13:29:19;;;;;;;;;18.00;15.50;;;;;;;;5020426;28;45476;-84
2021/09/03 13:31:44;;;;;;;;;17.67;15.00;;;;;;;;5013617;28;45404;-84
2021/09/03 13:34:10;;;;;;;;;14.25;14.25;;;;;;;;5009460;28;45548;-83
2021/09/03 13:36:36;;;;;;;;;18.00;16.00;;;;;;;;4999354;28;45512;-84
2021/09/03 13:39:01;;;;;;;;;14.75;13.25;;;;;;;;5007779;28;45761;-83
2021/09/03 13:41:30;;;;;;;;;18.00;14.00;;;;;;;;5015921;28;45332;-83
2021/09/03 13:43:56;;;;;;;;;16.25;14.75;;;;;;;;5020849;28;45508;-84
2021/09/03 13:46:21;;;;;;;;;17.50;16.25;;;;;;;;5010269;28;45520;-83
2021/09/03 13:48:47;;;;;;;;;15.50;15.00;;;;;;;;5018511;28;45655;-88
2021/09/03 13:51:13;;;;;;;;;16.25;13.25;;;;;;;;5018353;28;45407;-86
2021/09/03 13:53:38;;;;;;;;;14.25;13.25;;;;;;;;5019710;28;45423;-86
2021/09/03 13:56:03;;;;;;;;;16.50;13.50;;;;;;;;5018138;28;45372;-86
2021/09/03 13:58:29;;;;;;;;;17.25;14.00;;;;;;;;5018397;28;45435;-86
2021/09/03 14:00:54;;;;;;;;;15.50;15.25;;;;;;;;5013242;28;46520;-86
2021/09/03 14:03:19;;;;;;;;;11.75;11.50;;;;;;;;5017517;28;45706;-86
2021/09/03 14:05:45;;;;;;;;;13.67;12.67;;;;;;;;5016517;28;45675;-86
2021/09/03 14:08:10;;;;;;;;;13.75;13.75;;;;;;;;5003386;28;45379;-86
2021/09/03 14:10:36;;;;;;;;;14.75;13.50;;;;;;;;5019402;28;45469;-90